createdAt,value
2019-03-27T00:00:07.651Z,2.10
2019-03-27T00:02:36.065Z,2.10
2019-03-27T00:05:05.017Z,2.10
2019-03-27T00:07:33.518Z,2.10
2019-03-27T00:10:01.951Z,2.10
2019-03-27T00:12:30.442Z,2.00
2019-03-27T00:15:11.647Z,1.90
2019-03-27T00:17:29.041Z,1.90
2019-03-27T00:19:57.448Z,1.90
2019-03-27T00:22:25.874Z,1.90
2019-03-27T00:24:54.292Z,1.90
2019-03-27T00:27:22.700Z,1.80
2019-03-27T00:29:51.121Z,1.80
2019-03-27T00:32:19.547Z,1.90
2019-03-27T00:34:48.234Z,1.80
2019-03-27T00:37:16.688Z,1.90
2019-03-27T00:39:45.111Z,1.90
2019-03-27T00:42:13.547Z,1.90
2019-03-27T00:44:41.936Z,1.90
2019-03-27T00:47:10.375Z,1.80
2019-03-27T00:49:38.861Z,1.80
2019-03-27T00:52:07.369Z,1.80
2019-03-27T00:54:35.840Z,1.80
2019-03-27T00:57:05.820Z,1.80
2019-03-27T00:59:34.234Z,1.70
2019-03-27T01:02:02.656Z,1.70
2019-03-27T01:04:31.087Z,1.60
2019-03-27T01:06:59.571Z,1.50
2019-03-27T01:09:27.981Z,1.50
2019-03-27T01:11:56.381Z,1.50
2019-03-27T01:14:24.815Z,1.50
2019-03-27T01:16:53.255Z,1.50
2019-03-27T01:19:21.682Z,1.40
2019-03-27T01:21:50.089Z,1.40
2019-03-27T01:24:18.525Z,1.40
2019-03-27T01:26:46.940Z,1.40
2019-03-27T01:29:15.358Z,1.60
2019-03-27T01:31:43.787Z,1.60
2019-03-27T01:34:12.209Z,1.50
2019-03-27T01:36:40.625Z,1.40
2019-03-27T01:39:09.040Z,1.40
2019-03-27T01:41:37.470Z,1.40
2019-03-27T01:44:05.869Z,1.40
2019-03-27T01:46:34.294Z,1.40
2019-03-27T01:49:04.339Z,1.40
2019-03-27T01:51:32.768Z,1.40
2019-03-27T01:54:01.182Z,1.40
2019-03-27T01:56:29.676Z,1.20
2019-03-27T01:58:58.091Z,1.20
2019-03-27T02:01:26.499Z,1.30
2019-03-27T02:03:54.931Z,1.30
2019-03-27T02:06:23.367Z,1.30
2019-03-27T02:08:51.775Z,1.30
2019-03-27T02:11:20.203Z,1.40
2019-03-27T02:13:48.600Z,1.50
2019-03-27T02:16:17.012Z,1.60
2019-03-27T02:18:45.490Z,1.70
2019-03-27T02:21:15.015Z,1.70
2019-03-27T02:23:43.462Z,1.80
2019-03-27T02:26:11.891Z,1.90
2019-03-27T02:28:40.319Z,1.90
2019-03-27T02:31:08.737Z,2.00
2019-03-27T02:33:37.191Z,2.00
2019-03-27T02:36:05.892Z,2.00
2019-03-27T02:38:34.318Z,2.10
2019-03-27T02:41:02.736Z,2.10
2019-03-27T02:43:31.158Z,2.10
2019-03-27T02:45:59.607Z,2.10
2019-03-27T02:48:28.108Z,2.10
2019-03-27T02:50:56.550Z,2.10
2019-03-27T02:53:25.003Z,2.10
2019-03-27T02:55:53.436Z,2.20
2019-03-27T02:58:21.853Z,2.10
2019-03-27T03:00:50.289Z,2.10
2019-03-27T03:03:18.705Z,2.00
2019-03-27T03:05:47.131Z,2.00
2019-03-27T03:08:15.572Z,2.00
2019-03-27T03:10:45.908Z,1.90
2019-03-27T03:13:14.142Z,1.90
2019-03-27T03:15:42.560Z,1.90
2019-03-27T03:18:10.975Z,2.00
2019-03-27T03:20:39.403Z,1.90
2019-03-27T03:23:07.829Z,1.80
2019-03-27T03:25:36.287Z,1.80
2019-03-27T03:28:04.889Z,1.80
2019-03-27T03:30:33.416Z,1.80
2019-03-27T03:33:01.913Z,1.80
2019-03-27T03:35:30.448Z,1.90
2019-03-27T03:37:58.944Z,1.90
2019-03-27T03:40:27.385Z,1.90
2019-03-27T03:42:55.835Z,1.80
2019-03-27T03:45:24.237Z,1.90
2019-03-27T03:47:52.638Z,1.90
2019-03-27T03:50:40.566Z,1.90
2019-03-27T03:53:10.619Z,1.90
2019-03-27T03:55:39.861Z,1.90
2019-03-27T03:58:10.597Z,2.10
2019-03-27T04:00:40.000Z,1.80
2019-03-27T04:03:08.504Z,1.90
2019-03-27T04:05:36.982Z,1.80
2019-03-27T04:08:05.666Z,1.50
2019-03-27T04:10:34.453Z,1.50
2019-03-27T04:13:02.859Z,1.40
2019-03-27T04:15:31.296Z,1.40
2019-03-27T04:17:59.722Z,1.40
2019-03-27T04:20:28.163Z,1.40
2019-03-27T04:22:56.651Z,1.40
2019-03-27T04:25:25.071Z,1.30
2019-03-27T04:27:53.582Z,1.30
2019-03-27T04:30:23.534Z,1.20
2019-03-27T04:32:51.934Z,1.30
2019-03-27T04:35:20.349Z,1.30
2019-03-27T04:37:48.782Z,1.30
2019-03-27T04:40:17.270Z,1.30
2019-03-27T04:42:45.721Z,1.30
2019-03-27T04:45:16.537Z,1.20
2019-03-27T04:47:44.953Z,1.20
2019-03-27T04:50:13.512Z,1.20
2019-03-27T04:52:41.934Z,1.20
2019-03-27T04:55:10.433Z,1.10
2019-03-27T04:57:38.851Z,1.10
2019-03-27T05:00:08.128Z,1.20
2019-03-27T05:02:36.544Z,1.20
2019-03-27T05:05:07.162Z,1.30
2019-03-27T05:07:35.634Z,1.30
2019-03-27T05:10:05.199Z,1.30
2019-03-27T05:12:33.611Z,1.20
2019-03-27T05:15:02.036Z,1.10
2019-03-27T05:17:30.442Z,1.10
2019-03-27T05:19:58.880Z,1.20
2019-03-27T05:22:27.356Z,1.20
2019-03-27T05:24:55.767Z,1.30
2019-03-27T05:27:24.192Z,1.20
2019-03-27T05:29:52.598Z,1.20
2019-03-27T05:32:21.040Z,1.10
2019-03-27T05:34:49.471Z,1.30
2019-03-27T05:37:17.892Z,1.10
2019-03-27T05:39:46.305Z,1.10
2019-03-27T05:42:14.738Z,1.10
2019-03-27T05:44:43.162Z,1.20
2019-03-27T05:47:11.569Z,1.10
2019-03-27T05:49:40.015Z,1.10
2019-03-27T05:52:08.440Z,1.20
2019-03-27T05:54:39.928Z,1.20
2019-03-27T05:57:08.358Z,1.20
2019-03-27T05:59:36.761Z,1.30
2019-03-27T06:02:05.238Z,1.40
2019-03-27T06:04:33.679Z,1.40
2019-03-27T06:07:02.093Z,1.40
2019-03-27T06:09:30.511Z,1.40
2019-03-27T06:11:58.935Z,1.40
2019-03-27T06:14:27.367Z,1.50
2019-03-27T06:16:55.803Z,1.70
2019-03-27T06:19:24.275Z,1.60
2019-03-27T06:21:52.715Z,1.60
2019-03-27T06:24:21.125Z,1.70
2019-03-27T06:26:49.528Z,1.70
2019-03-27T06:29:17.944Z,1.70
2019-03-27T06:31:46.384Z,1.60
2019-03-27T06:34:14.797Z,1.60
2019-03-27T06:36:43.220Z,1.60
2019-03-27T06:39:11.643Z,1.70
2019-03-27T06:41:40.147Z,1.90
2019-03-27T06:44:08.585Z,1.80
2019-03-27T06:46:36.998Z,1.90
2019-03-27T06:49:05.428Z,2.10
2019-03-27T06:51:39.929Z,2.20
2019-03-27T06:54:04.075Z,2.20
2019-03-27T06:56:32.492Z,2.30
2019-03-27T06:59:00.944Z,2.30
2019-03-27T07:01:29.384Z,2.40
2019-03-27T07:04:09.815Z,2.50
2019-03-27T07:06:27.975Z,2.40
2019-03-27T07:08:56.410Z,2.50
2019-03-27T07:11:24.824Z,2.60
2019-03-27T07:13:53.249Z,2.60
2019-03-27T07:16:21.689Z,2.70
2019-03-27T07:18:52.207Z,2.80
2019-03-27T07:21:20.653Z,2.70
2019-03-27T07:23:49.067Z,2.70
2019-03-27T07:26:17.527Z,2.90
2019-03-27T07:28:45.974Z,2.90
2019-03-27T07:31:14.419Z,3.00
2019-03-27T07:33:42.826Z,3.20
2019-03-27T07:36:12.774Z,3.20
2019-03-27T07:38:41.210Z,3.30
2019-03-27T07:41:10.484Z,3.40
2019-03-27T07:43:38.916Z,3.50
2019-03-27T07:46:07.313Z,3.70
2019-03-27T07:48:35.738Z,3.80
2019-03-27T07:51:04.231Z,3.90
2019-03-27T07:53:32.658Z,3.90
2019-03-27T07:56:01.071Z,4.10
2019-03-27T07:58:29.523Z,4.20
2019-03-27T08:00:57.914Z,4.30
2019-03-27T08:03:26.350Z,4.30
2019-03-27T08:05:54.758Z,4.50
2019-03-27T08:08:23.183Z,4.60
2019-03-27T08:10:51.605Z,4.80
2019-03-27T08:13:20.028Z,4.90
2019-03-27T08:15:48.457Z,5.00
2019-03-27T08:18:16.881Z,5.30
2019-03-27T08:20:45.289Z,5.50
2019-03-27T08:23:13.725Z,5.70
2019-03-27T08:25:42.195Z,6.00
2019-03-27T08:28:10.627Z,6.20
2019-03-27T08:30:39.023Z,6.20
2019-03-27T08:33:07.433Z,6.40
2019-03-27T08:35:35.845Z,6.50
2019-03-27T08:38:04.278Z,6.50
2019-03-27T08:40:32.757Z,6.60
2019-03-27T08:43:01.182Z,6.80
2019-03-27T08:45:29.610Z,6.70
2019-03-27T08:47:58.047Z,6.60
2019-03-27T08:50:26.469Z,6.70
2019-03-27T08:52:54.888Z,6.70
2019-03-27T08:55:23.315Z,7.00
2019-03-27T08:57:51.722Z,7.20
2019-03-27T09:00:23.236Z,7.40
2019-03-27T09:02:51.650Z,7.60
2019-03-27T09:05:20.074Z,7.60
2019-03-27T09:07:48.477Z,7.80
2019-03-27T09:10:16.974Z,8.00
2019-03-27T09:12:45.415Z,7.90
2019-03-27T09:15:14.313Z,8.00
2019-03-27T09:17:42.749Z,8.30
2019-03-27T09:20:11.794Z,8.60
2019-03-27T09:22:40.189Z,8.60
2019-03-27T09:25:08.941Z,8.50
2019-03-27T09:27:37.364Z,8.70
2019-03-27T09:30:08.846Z,9.10
2019-03-27T09:32:37.279Z,9.20
2019-03-27T09:35:06.435Z,9.20
2019-03-27T09:37:34.865Z,9.40
2019-03-27T09:40:04.114Z,9.20
2019-03-27T09:42:32.537Z,9.30
2019-03-27T09:45:01.014Z,9.30
2019-03-27T09:47:29.458Z,9.60
2019-03-27T09:49:57.868Z,9.80
2019-03-27T09:52:26.284Z,9.70
2019-03-27T09:54:54.707Z,9.50
2019-03-27T09:57:23.142Z,9.30
2019-03-27T09:59:51.559Z,9.30
2019-03-27T10:02:19.952Z,9.30
2019-03-27T10:04:48.398Z,9.40
2019-03-27T10:07:16.823Z,9.50
2019-03-27T10:09:45.271Z,9.60
2019-03-27T10:12:13.687Z,9.80
2019-03-27T10:14:42.118Z,9.70
2019-03-27T10:17:10.615Z,9.80
2019-03-27T10:19:39.021Z,9.80
2019-03-27T10:22:07.508Z,9.50
2019-03-27T10:24:36.338Z,9.50
2019-03-27T10:27:04.817Z,9.70
2019-03-27T10:29:33.229Z,9.90
2019-03-27T10:32:01.657Z,10.10
2019-03-27T10:34:30.154Z,10.30
2019-03-27T10:36:58.591Z,10.30
2019-03-27T10:39:27.003Z,10.60
2019-03-27T10:41:55.488Z,10.60
2019-03-27T10:44:23.927Z,10.70
2019-03-27T10:46:52.352Z,10.80
2019-03-27T10:49:20.778Z,10.60
2019-03-27T10:51:49.194Z,10.60
2019-03-27T10:54:17.625Z,10.80
2019-03-27T10:56:46.051Z,10.90
2019-03-27T10:59:14.485Z,11.00
2019-03-27T11:01:42.896Z,11.10
2019-03-27T11:07:40.376Z,11.20
2019-03-27T11:10:09.367Z,11.10
2019-03-27T11:12:37.778Z,11.30
2019-03-27T11:15:07.866Z,11.10
2019-03-27T11:17:36.288Z,11.10
2019-03-27T11:20:06.770Z,11.10
2019-03-27T11:22:35.176Z,11.20
2019-03-27T11:25:04.739Z,11.10
2019-03-27T11:27:33.175Z,11.10
2019-03-27T11:30:01.971Z,11.10
2019-03-27T11:32:30.419Z,11.00
2019-03-27T11:34:58.832Z,11.00
2019-03-27T11:37:27.253Z,11.10
2019-03-27T11:39:55.666Z,11.30
2019-03-27T11:42:24.107Z,11.20
2019-03-27T11:44:52.518Z,11.20
2019-03-27T11:47:20.964Z,11.50
2019-03-27T11:49:49.364Z,11.70
2019-03-27T11:52:17.873Z,12.00
2019-03-27T11:54:46.311Z,12.20
2019-03-27T11:57:14.735Z,12.30
2019-03-27T11:59:53.147Z,12.30
2019-03-27T12:02:13.363Z,12.40
2019-03-27T12:04:41.810Z,12.30
2019-03-27T12:07:10.243Z,12.50
2019-03-27T12:09:38.651Z,12.60
2019-03-27T12:12:07.128Z,12.50
2019-03-27T12:14:35.521Z,12.50
2019-03-27T12:17:03.959Z,12.20
2019-03-27T12:19:32.375Z,12.20
2019-03-27T12:22:00.800Z,12.30
2019-03-27T12:24:29.293Z,12.30
2019-03-27T12:26:58.633Z,12.40
2019-03-27T12:29:27.070Z,12.30
2019-03-27T12:31:55.507Z,12.30
2019-03-27T12:34:23.933Z,12.10
2019-03-27T12:36:52.350Z,12.40
2019-03-27T12:39:20.778Z,12.60
2019-03-27T12:41:49.193Z,12.60
2019-03-27T12:44:17.620Z,12.50
2019-03-27T12:46:46.069Z,11.70
2019-03-27T12:49:14.497Z,11.80
2019-03-27T12:51:42.917Z,11.90
2019-03-27T12:54:11.341Z,12.10
2019-03-27T12:56:39.821Z,12.20
2019-03-27T12:59:08.261Z,12.20
2019-03-27T13:01:36.704Z,12.40
2019-03-27T13:04:05.454Z,12.60
2019-03-27T13:06:33.910Z,12.80
2019-03-27T13:09:02.384Z,12.70
2019-03-27T13:11:32.353Z,12.00
2019-03-27T13:14:00.779Z,12.20
2019-03-27T13:16:30.903Z,12.50
2019-03-27T13:18:59.387Z,12.80
2019-03-27T13:21:27.832Z,12.60
2019-03-27T13:23:56.239Z,12.80
2019-03-27T13:26:24.726Z,12.70
2019-03-27T13:28:53.161Z,12.30
2019-03-27T13:31:21.596Z,12.10
2019-03-27T13:33:50.541Z,12.30
2019-03-27T13:36:19.311Z,12.20
2019-03-27T13:38:47.722Z,12.20
2019-03-27T13:41:16.206Z,12.10
2019-03-27T13:43:44.709Z,11.90
2019-03-27T13:46:13.118Z,11.90
2019-03-27T13:48:41.627Z,11.70
2019-03-27T13:51:10.110Z,11.80
2019-03-27T13:53:38.567Z,11.90
2019-03-27T13:56:06.969Z,11.80
2019-03-27T13:58:35.427Z,11.70
2019-03-27T14:01:03.904Z,11.90
2019-03-27T14:03:32.327Z,12.00
2019-03-27T14:06:00.755Z,12.00
2019-03-27T14:08:30.809Z,11.90
2019-03-27T14:10:59.243Z,11.80
2019-03-27T14:13:27.680Z,11.80
2019-03-27T14:15:56.340Z,11.80
2019-03-27T14:18:24.886Z,11.80
2019-03-27T14:20:53.325Z,11.90
2019-03-27T14:23:21.754Z,12.00
2019-03-27T14:25:50.176Z,11.80
2019-03-27T14:28:18.656Z,11.80
2019-03-27T14:30:51.577Z,11.70
2019-03-27T14:33:20.566Z,11.80
2019-03-27T14:35:49.121Z,11.90
2019-03-27T14:38:17.763Z,11.80
2019-03-27T14:40:46.942Z,11.70
2019-03-27T14:43:15.435Z,11.80
2019-03-27T14:45:43.876Z,11.80
2019-03-27T14:48:12.308Z,11.90
2019-03-27T14:50:40.872Z,12.00
2019-03-27T14:53:09.449Z,12.10
2019-03-27T14:55:37.926Z,12.30
2019-03-27T14:58:08.514Z,12.30
2019-03-27T15:00:38.200Z,12.10
2019-03-27T15:03:06.622Z,11.80
2019-03-27T15:05:35.041Z,11.90
2019-03-27T15:08:04.331Z,11.80
2019-03-27T15:10:33.051Z,11.80
2019-03-27T15:13:01.485Z,12.00
2019-03-27T15:15:30.070Z,12.10
2019-03-27T15:17:58.507Z,12.00
2019-03-27T15:20:26.930Z,12.10
2019-03-27T15:22:55.358Z,12.10
2019-03-27T15:25:23.790Z,11.90
2019-03-27T15:27:52.218Z,11.90
2019-03-27T15:30:20.914Z,11.80
2019-03-27T15:32:49.367Z,11.80
2019-03-27T15:35:19.093Z,11.90
2019-03-27T15:37:47.513Z,11.90
2019-03-27T15:40:19.314Z,11.80
2019-03-27T15:42:47.765Z,11.90
2019-03-27T15:45:16.262Z,11.90
2019-03-27T15:47:44.700Z,11.80
2019-03-27T15:50:13.184Z,11.70
2019-03-27T15:52:41.696Z,11.70
2019-03-27T15:55:11.207Z,11.60
2019-03-27T15:57:39.803Z,11.60
2019-03-27T16:00:08.662Z,11.60
2019-03-27T16:02:37.181Z,11.80
2019-03-27T16:05:07.379Z,11.80
2019-03-27T16:07:35.877Z,11.80
2019-03-27T16:10:06.540Z,11.70
2019-03-27T16:12:36.414Z,11.70
2019-03-27T16:15:09.002Z,11.70
2019-03-27T16:17:37.493Z,11.60
2019-03-27T16:20:07.572Z,11.50
2019-03-27T16:22:49.516Z,11.50
2019-03-27T16:25:07.739Z,11.40
2019-03-27T16:27:36.146Z,11.40
2019-03-27T16:30:06.122Z,11.40
2019-03-27T16:32:34.541Z,11.30
2019-03-27T16:35:03.063Z,11.20
2019-03-27T16:37:31.479Z,11.20
2019-03-27T16:39:59.925Z,11.10
2019-03-27T16:42:28.351Z,11.10
2019-03-27T16:44:56.854Z,10.90
2019-03-27T16:47:25.267Z,10.80
2019-03-27T16:49:53.776Z,10.80
2019-03-27T16:52:22.185Z,10.80
2019-03-27T16:54:50.617Z,10.70
2019-03-27T16:57:19.028Z,10.70
2019-03-27T16:59:47.495Z,10.60
2019-03-27T17:02:15.986Z,10.60
2019-03-27T17:04:44.410Z,10.60
2019-03-27T17:07:12.843Z,10.50
2019-03-27T17:09:41.258Z,10.50
2019-03-27T17:12:10.338Z,10.50
2019-03-27T17:14:38.747Z,10.40
2019-03-27T17:17:07.259Z,10.40
2019-03-27T17:19:35.699Z,10.30
2019-03-27T17:22:18.517Z,10.30
2019-03-27T17:24:34.590Z,10.30
2019-03-27T17:27:02.992Z,10.20
2019-03-27T17:29:31.422Z,10.10
2019-03-27T17:31:59.906Z,10.10
2019-03-27T17:34:28.341Z,10.10
2019-03-27T17:36:56.758Z,10.10
2019-03-27T17:39:25.531Z,10.00
2019-03-27T17:41:53.948Z,9.90
2019-03-27T17:44:22.367Z,9.90
2019-03-27T17:46:50.789Z,9.90
2019-03-27T17:49:19.240Z,9.90
2019-03-27T17:51:47.684Z,9.80
2019-03-27T17:54:20.845Z,9.70
2019-03-27T17:56:46.253Z,9.50
2019-03-27T17:59:24.825Z,9.40
2019-03-27T18:01:53.258Z,9.40
2019-03-27T18:04:21.667Z,9.30
2019-03-27T18:06:50.120Z,9.20
2019-03-27T18:09:18.565Z,9.00
2019-03-27T18:11:46.982Z,9.00
2019-03-27T18:14:15.402Z,8.80
2019-03-27T18:16:43.830Z,8.60
2019-03-27T18:19:12.272Z,8.70
2019-03-27T18:21:40.734Z,8.50
2019-03-27T18:24:09.253Z,8.30
2019-03-27T18:26:37.664Z,8.20
2019-03-27T18:29:06.119Z,8.10
2019-03-27T18:31:34.543Z,7.90
2019-03-27T18:34:02.963Z,7.80
2019-03-27T18:36:31.411Z,7.60
2019-03-27T18:38:59.816Z,7.60
2019-03-27T18:41:28.254Z,7.40
2019-03-27T18:43:56.759Z,7.30
2019-03-27T18:46:25.176Z,7.20
2019-03-27T18:48:53.660Z,7.10
2019-03-27T18:51:22.090Z,7.10
2019-03-27T18:53:59.440Z,7.00
2019-03-27T18:56:20.650Z,7.00
2019-03-27T18:58:49.079Z,6.90
2019-03-27T19:01:17.485Z,6.90
2019-03-27T19:03:45.918Z,6.70
2019-03-27T19:06:14.312Z,6.70
2019-03-27T19:08:42.736Z,6.60
2019-03-27T19:11:11.234Z,6.50
2019-03-27T19:13:39.647Z,6.60
2019-03-27T19:16:08.256Z,6.50
2019-03-27T19:18:36.857Z,6.40
2019-03-27T19:21:05.631Z,6.30
2019-03-27T19:23:34.141Z,6.20
2019-03-27T19:26:02.570Z,6.20
2019-03-27T19:28:31.054Z,6.20
2019-03-27T19:30:59.562Z,6.20
2019-03-27T19:33:27.975Z,6.20
2019-03-27T19:35:56.426Z,6.10
2019-03-27T19:38:24.862Z,6.10
2019-03-27T19:40:53.290Z,6.00
2019-03-27T19:43:21.722Z,5.90
2019-03-27T19:45:51.689Z,5.90
2019-03-27T19:48:20.240Z,5.80
2019-03-27T19:50:48.679Z,5.80
2019-03-27T19:53:17.334Z,5.80
2019-03-27T19:55:45.755Z,5.70
2019-03-27T19:58:14.170Z,5.70
2019-03-27T20:00:42.613Z,5.60
2019-03-27T20:03:11.030Z,5.50
2019-03-27T20:05:39.480Z,5.40
2019-03-27T20:08:07.881Z,5.30
2019-03-27T20:10:36.305Z,5.20
2019-03-27T20:13:05.918Z,5.20
2019-03-27T20:15:34.432Z,5.10
2019-03-27T20:18:02.862Z,5.10
2019-03-27T20:20:31.350Z,5.10
2019-03-27T20:22:59.821Z,5.00
2019-03-27T20:25:28.318Z,4.90
2019-03-27T20:27:56.839Z,4.80
2019-03-27T20:30:26.865Z,4.70
2019-03-27T20:32:55.799Z,4.60
2019-03-27T20:35:24.238Z,4.70
2019-03-27T20:37:52.671Z,4.60
2019-03-27T20:40:21.156Z,4.50
2019-03-27T20:42:52.095Z,4.60
2019-03-27T20:45:19.747Z,4.60
2019-03-27T20:47:48.176Z,4.60
2019-03-27T20:50:16.774Z,4.50
2019-03-27T20:52:45.272Z,4.50
2019-03-27T20:55:14.150Z,4.50
2019-03-27T20:57:42.572Z,4.40
2019-03-27T21:00:13.005Z,4.40
2019-03-27T21:02:41.435Z,4.40
2019-03-27T21:05:09.824Z,4.20
2019-03-27T21:07:38.312Z,4.20
2019-03-27T21:10:08.274Z,4.20
2019-03-27T21:12:36.686Z,4.20
2019-03-27T21:15:06.336Z,4.20
2019-03-27T21:17:34.776Z,4.20
2019-03-27T21:20:03.965Z,4.10
2019-03-27T21:22:32.362Z,4.00
2019-03-27T21:25:08.453Z,4.00
2019-03-27T21:27:30.956Z,4.00
2019-03-27T21:29:59.350Z,4.00
2019-03-27T21:32:27.847Z,4.00
2019-03-27T21:34:56.252Z,3.90
2019-03-27T21:37:24.850Z,3.90
2019-03-27T21:39:53.267Z,3.90
2019-03-27T21:42:21.676Z,3.80
2019-03-27T21:44:50.096Z,3.80
2019-03-27T21:47:18.521Z,3.80
2019-03-27T21:49:46.969Z,3.70
2019-03-27T21:52:15.397Z,3.70
2019-03-27T21:54:43.797Z,3.70
2019-03-27T21:57:12.244Z,3.70
2019-03-27T21:59:40.669Z,3.70
2019-03-27T22:02:09.491Z,3.70
2019-03-27T22:04:38.912Z,3.70
2019-03-27T22:07:07.330Z,3.70
2019-03-27T22:09:35.771Z,3.60
2019-03-27T22:12:04.248Z,3.60
2019-03-27T22:14:33.363Z,3.70
2019-03-27T22:17:02.813Z,3.50
2019-03-27T22:19:31.331Z,3.50
2019-03-27T22:22:00.167Z,3.40
2019-03-27T22:24:28.824Z,3.40
2019-03-27T22:26:57.652Z,3.40
2019-03-27T22:29:26.975Z,3.30
2019-03-27T22:31:55.762Z,3.30
2019-03-27T22:34:26.227Z,3.30
2019-03-27T22:36:55.085Z,3.30
2019-03-27T22:39:23.609Z,3.30
2019-03-27T22:41:52.953Z,3.20
2019-03-27T22:44:21.633Z,3.20
2019-03-27T22:46:51.314Z,3.10
2019-03-27T22:49:19.824Z,3.20
2019-03-27T22:51:48.578Z,3.30
2019-03-27T22:54:17.143Z,3.20
2019-03-27T22:56:45.859Z,3.20
2019-03-27T22:59:15.687Z,3.30
2019-03-27T23:01:45.729Z,3.20
2019-03-27T23:04:14.241Z,3.20
2019-03-27T23:06:42.659Z,3.10
2019-03-27T23:09:11.329Z,3.10
2019-03-27T23:11:41.036Z,3.10
2019-03-27T23:14:10.293Z,3.10
2019-03-27T23:16:39.113Z,3.00
2019-03-27T23:19:07.554Z,3.20
2019-03-27T23:21:36.062Z,3.10
2019-03-27T23:24:04.787Z,3.10
2019-03-27T23:26:33.763Z,3.00
2019-03-27T23:29:02.571Z,3.00
2019-03-27T23:31:31.281Z,2.90
2019-03-27T23:34:00.513Z,2.90
2019-03-27T23:36:29.454Z,2.90
2019-03-27T23:38:57.857Z,2.90
2019-03-27T23:41:26.285Z,2.80
2019-03-27T23:43:54.689Z,2.90
2019-03-27T23:46:24.013Z,2.80
2019-03-27T23:48:52.408Z,2.80
2019-03-27T23:51:20.971Z,2.80
2019-03-27T23:53:49.695Z,2.80
2019-03-27T23:56:18.122Z,2.80
2019-03-27T23:58:46.535Z,2.90
